Hauptseite
METAR-TAF:

METAR-TAF

Flughäfen :

Flughafen Caen-Carpiquet

Caen, Frankreich

Breite: 49-11N, Länge: 000-27W, Höhe: 78 m

Beobachtung

Neuester Wetterbericht von vor 26 Minuten, um 10:30 UTC
Wind 9 kt aus Süd
Temperatur 7°C
Luftfeuchtigkeit 81%
Luftdruck 995 hPa
Sichtweite 10 km oder mehr

METAR: LFRK 141030Z AUTO 18009KT 9999 FEW017/// ///TCU 07/04 Q0995 TEMPO 4000 SHRAGS BKN020CB

Zeit: 11:56 (10:56 UTC)

Prognose

Neuester Wetterbericht von vor 2 Stunden und 56 Minuten, um 08:00 UTC
Gültige Prognose vom 14 um 09 UTC bis 14 um 18 UTC
Wind 10 kt aus Süd
Sichtweite 10 km oder mehr
Durchbrochene Bewölkung in der Höhe von 3000 ft
Zeitweise
vom 14 um 09 UTC bis 14 um 18 UTC
Sichtweite: 4000 m
Durchbrochene Bewölkung in der Höhe von 2000 ft, Kumulonimbus.
Regenschauer, Reif oder Frostgraupel

TAF: LFRK 140800Z 1409/1418 18010KT 9999 BKN030 TEMPO 1409/1418 4000 SHRAGS BKN020CB

Wetterbeobachtungen und Prognosen von mehr als 4000 Flughäfen (METAR und TAF Bericht).

Die verfügbaren Stationen werden durch gelbe und rote Markierungen auf der Karte dargestellt.

Führen Sie die Maus auf sie, um den Namen der Station zu sehen.

Darauf klicken, um die Beobachtung von Wetterbeobachtungen und Prognosen zu sehen.

Um die Karte zu ändern : klicken Sie auf den grünen Tasten mit einem schwarzen Kreuz Zum Vergrößern, auf den grünen Button mit einem Gedankenstrich zu verkleinern, oder auf die grünen Pfeile für benachbarte Karten.


METAR-TAF: